createdAt,value
2022-09-12T00:02:14.018Z,6.68
2022-09-12T00:06:22.969Z,7.93
2022-09-12T00:10:26.967Z,7.50
2022-09-12T00:14:31.820Z,7.60
2022-09-12T00:18:35.368Z,8.60
2022-09-12T00:22:38.885Z,8.75
2022-09-12T00:26:41.895Z,7.88
2022-09-12T00:30:48.181Z,8.00
2022-09-12T00:34:51.136Z,8.80
2022-09-12T00:38:54.961Z,8.77
2022-09-12T00:42:57.940Z,8.52
2022-09-12T00:47:07.047Z,8.77
2022-09-12T00:51:11.074Z,9.07
2022-09-12T00:55:18.508Z,8.25
2022-09-12T00:59:27.152Z,9.05
2022-09-12T01:03:32.549Z,8.77
2022-09-12T01:07:39.867Z,8.70
2022-09-12T01:11:46.278Z,8.18
2022-09-12T01:15:49.411Z,7.82
2022-09-12T01:20:33.083Z,7.78
2022-09-12T01:24:52.949Z,9.00
2022-09-12T01:29:15.775Z,8.35
2022-09-12T01:33:40.036Z,8.57
2022-09-12T01:37:54.271Z,9.32
2022-09-12T01:42:10.634Z,8.70
2022-09-12T01:46:17.980Z,7.43
2022-09-12T01:50:26.988Z,7.80
2022-09-12T01:54:38.265Z,7.78
2022-09-12T01:58:46.756Z,9.30
2022-09-12T02:02:56.391Z,8.68
2022-09-12T02:07:07.441Z,9.13
2022-09-12T02:11:12.808Z,9.07
2022-09-12T02:15:19.424Z,9.05
2022-09-12T02:19:25.346Z,8.15
2022-09-12T02:23:32.691Z,9.25
2022-09-12T02:27:41.536Z,9.10
2022-09-12T02:31:47.663Z,9.02
2022-09-12T02:35:55.586Z,7.68
2022-09-12T02:40:01.770Z,9.73
2022-09-12T02:44:05.963Z,8.02
2022-09-12T02:48:13.918Z,8.27
2022-09-12T02:52:17.255Z,8.73
2022-09-12T02:56:27.079Z,8.60
2022-09-12T03:00:35.289Z,9.07
2022-09-12T03:04:53.392Z,9.85
2022-09-12T03:09:05.773Z,9.85
2022-09-12T03:13:23.257Z,9.18
2022-09-12T03:17:36.006Z,9.38
2022-09-12T03:21:47.298Z,9.30
2022-09-12T03:25:57.071Z,8.85
2022-09-12T03:30:02.136Z,8.82
2022-09-12T03:34:06.112Z,9.13
2022-09-12T03:38:12.064Z,8.40
2022-09-12T03:42:15.065Z,10.50
2022-09-12T03:46:19.403Z,9.15
2022-09-12T03:50:22.429Z,8.95
2022-09-12T03:54:25.669Z,10.35
2022-09-12T03:58:32.043Z,9.57
2022-09-12T04:02:36.777Z,21.25
2022-09-12T04:06:39.886Z,10.82
2022-09-12T04:10:43.148Z,12.05
2022-09-12T04:14:46.365Z,11.88
2022-09-12T04:18:50.685Z,12.80
2022-09-12T04:22:53.618Z,30.05
2022-09-12T04:26:56.698Z,14.70
2022-09-12T04:31:04.034Z,13.20
2022-09-12T04:35:08.873Z,12.82
2022-09-12T04:39:12.851Z,13.40
2022-09-12T04:43:16.152Z,13.07
2022-09-12T04:47:19.165Z,12.00
2022-09-12T04:51:27.918Z,13.65
2022-09-12T04:55:31.199Z,14.52
2022-09-12T04:59:35.028Z,26.10
2022-09-12T05:03:39.664Z,13.10
2022-09-12T05:07:44.308Z,14.13
2022-09-12T05:12:03.644Z,13.45
2022-09-12T05:16:08.853Z,14.57
2022-09-12T05:20:12.878Z,14.13
2022-09-12T05:24:17.364Z,15.80
2022-09-12T05:28:22.656Z,22.02
2022-09-12T05:32:25.741Z,15.95
2022-09-12T05:36:31.076Z,15.90
2022-09-12T05:40:35.840Z,16.80
2022-09-12T05:44:38.786Z,16.98
2022-09-12T05:48:43.518Z,16.17
2022-09-12T05:52:46.457Z,16.15
2022-09-12T05:56:51.138Z,17.55
2022-09-12T06:00:54.132Z,17.02
2022-09-12T06:04:57.123Z,17.85
2022-09-12T06:09:02.529Z,24.42
2022-09-12T06:13:06.816Z,17.88
2022-09-12T06:17:10.369Z,20.02
2022-09-12T06:21:14.488Z,18.30
2022-09-12T06:25:17.419Z,19.80
2022-09-12T06:29:22.065Z,18.17
2022-09-12T06:33:25.109Z,18.95
2022-09-12T06:37:28.530Z,20.48
2022-09-12T06:41:32.324Z,19.50
2022-09-12T06:45:37.249Z,20.25
2022-09-12T06:49:40.313Z,23.33
2022-09-12T06:53:44.488Z,20.58
2022-09-12T06:57:47.481Z,21.98
2022-09-12T07:01:52.087Z,22.60
2022-09-12T07:05:55.109Z,22.50
2022-09-12T07:09:58.532Z,21.70
2022-09-12T07:14:03.153Z,20.75
2022-09-12T07:18:07.913Z,18.60
2022-09-12T07:22:10.881Z,18.85
2022-09-12T07:26:15.998Z,18.50
2022-09-12T07:30:19.538Z,15.05
2022-09-12T07:34:23.890Z,13.52
2022-09-12T07:38:27.142Z,12.82
2022-09-12T07:42:31.062Z,10.48
2022-09-12T07:46:35.236Z,10.00
2022-09-12T07:50:43.210Z,9.80
2022-09-12T07:54:48.096Z,10.15
2022-09-12T07:58:51.293Z,9.60
2022-09-12T08:02:56.655Z,9.90
2022-09-12T08:07:01.059Z,9.45
2022-09-12T08:11:06.452Z,8.43
2022-09-12T08:15:10.285Z,8.95
2022-09-12T08:19:13.255Z,10.68
2022-09-12T08:23:18.091Z,8.77
2022-09-12T08:27:21.127Z,8.25
2022-09-12T08:31:26.795Z,8.20
2022-09-12T08:35:29.807Z,7.50
2022-09-12T08:39:34.633Z,7.85
2022-09-12T08:43:54.515Z,7.32
2022-09-12T08:48:03.195Z,8.20
2022-09-12T08:52:13.293Z,7.95
2022-09-12T08:56:17.753Z,8.13
2022-09-12T09:00:22.263Z,8.25
2022-09-12T09:04:44.087Z,7.32
2022-09-12T09:08:57.086Z,7.25
2022-09-12T09:13:09.739Z,9.00
2022-09-12T09:17:16.734Z,5.95
2022-09-12T09:21:25.088Z,5.07
2022-09-12T09:25:42.170Z,6.80
2022-09-12T09:29:49.998Z,5.72
2022-09-12T09:33:55.278Z,5.40
2022-09-12T09:38:18.967Z,5.18
2022-09-12T09:42:37.528Z,4.78
2022-09-12T09:46:42.067Z,5.15
2022-09-12T09:50:47.187Z,4.43
2022-09-12T09:54:54.301Z,4.43
2022-09-12T09:58:57.431Z,4.22
2022-09-12T10:03:20.491Z,4.63
2022-09-12T10:07:24.802Z,4.57
2022-09-12T10:11:30.360Z,3.40
2022-09-12T10:15:34.818Z,3.70
2022-09-12T10:19:40.959Z,3.35
2022-09-12T10:23:44.793Z,3.67
2022-09-12T10:27:55.159Z,3.30
2022-09-12T10:32:02.223Z,3.20
2022-09-12T10:36:07.198Z,3.28
2022-09-12T10:40:25.037Z,3.38
2022-09-12T10:44:29.640Z,4.28
2022-09-12T10:48:33.574Z,3.13
2022-09-12T10:52:38.170Z,2.88
2022-09-12T10:56:56.422Z,2.90
2022-09-12T11:01:11.018Z,2.58
2022-09-12T11:05:22.560Z,2.25
2022-09-12T11:09:33.250Z,2.47
2022-09-12T11:13:54.920Z,1.70
2022-09-12T11:18:06.436Z,2.45
2022-09-12T11:22:23.351Z,2.58
2022-09-12T11:26:43.715Z,2.15
2022-09-12T11:31:01.159Z,2.67
2022-09-12T11:35:17.288Z,2.55
2022-09-12T11:39:24.666Z,2.15
2022-09-12T11:43:37.975Z,2.25
2022-09-12T11:47:42.958Z,1.80
2022-09-12T11:51:51.797Z,2.40
2022-09-12T11:56:00.466Z,1.80
2022-09-12T12:00:08.849Z,2.10
2022-09-12T12:04:13.917Z,2.00
2022-09-12T12:08:17.195Z,2.05
2022-09-12T12:12:26.227Z,2.28
2022-09-12T12:16:34.689Z,2.40
2022-09-12T12:20:37.869Z,2.22
2022-09-12T12:24:57.367Z,2.20
2022-09-12T12:29:00.960Z,2.20
2022-09-12T12:33:33.048Z,2.10
2022-09-12T12:38:03.975Z,2.22
2022-09-12T12:42:06.998Z,2.30
2022-09-12T12:46:13.322Z,2.00
2022-09-12T12:50:26.789Z,2.63
2022-09-12T12:54:33.458Z,2.10
2022-09-12T12:58:40.670Z,2.17
2022-09-12T13:02:52.986Z,2.30
2022-09-12T13:07:07.901Z,1.80
2022-09-12T13:11:16.121Z,1.90
2022-09-12T13:15:48.682Z,2.08
2022-09-12T13:20:10.853Z,1.90
2022-09-12T13:24:19.282Z,2.20
2022-09-12T15:32:26.036Z,2.13
2022-09-12T15:36:30.994Z,1.50
2022-09-12T15:40:34.105Z,1.20
2022-09-12T15:44:37.128Z,1.50
2022-09-12T15:48:41.590Z,1.30
2022-09-12T15:52:44.866Z,1.42
2022-09-12T15:56:48.142Z,7.82
2022-09-12T16:00:51.144Z,1.35
2022-09-12T16:04:56.154Z,1.60
2022-09-12T16:08:59.078Z,1.10
2022-09-12T16:13:04.322Z,1.42
2022-09-12T16:17:07.916Z,1.20
2022-09-12T16:21:15.236Z,1.30
2022-09-12T16:25:18.628Z,1.50
2022-09-12T16:29:21.760Z,1.23
2022-09-12T16:33:25.448Z,1.67
2022-09-12T16:37:30.088Z,16.75
2022-09-12T16:41:33.145Z,1.60
2022-09-12T16:45:36.212Z,1.30
2022-09-12T16:49:39.372Z,1.20
2022-09-12T16:53:44.231Z,1.40
2022-09-12T16:57:49.520Z,1.30
2022-09-12T17:01:52.657Z,1.52
2022-09-12T17:05:59.641Z,1.40
2022-09-12T17:10:04.132Z,1.40
2022-09-12T17:14:09.050Z,1.40
2022-09-12T17:18:12.294Z,1.52
2022-09-12T17:22:15.455Z,1.70
2022-09-12T17:26:20.838Z,1.75
2022-09-12T17:30:23.876Z,1.63
2022-09-12T17:34:26.965Z,1.83
2022-09-12T17:38:32.840Z,2.03
2022-09-12T17:42:37.281Z,1.70
2022-09-12T17:46:40.875Z,2.10
2022-09-12T17:50:43.991Z,2.20
2022-09-12T17:54:47.050Z,2.28
2022-09-12T17:58:51.888Z,2.00
2022-09-12T18:02:55.602Z,2.00
2022-09-12T18:07:00.415Z,2.50
2022-09-12T18:11:05.547Z,2.70
2022-09-12T18:15:11.386Z,2.42
2022-09-12T18:19:16.153Z,2.20
2022-09-12T18:23:19.153Z,2.58
2022-09-12T18:27:22.558Z,2.45
2022-09-12T18:31:30.210Z,3.00
2022-09-12T18:35:33.336Z,2.33
2022-09-12T18:39:37.735Z,2.63
2022-09-12T18:43:40.958Z,2.60
2022-09-12T18:47:45.365Z,2.88
2022-09-12T18:51:48.550Z,2.92
2022-09-12T18:55:54.324Z,2.60
2022-09-12T18:59:59.664Z,3.13
2022-09-12T19:08:48.840Z,2.75
2022-09-12T19:19:00.177Z,3.22
2022-09-12T19:23:12.583Z,4.03
2022-09-12T19:27:16.876Z,4.15
2022-09-12T19:31:21.735Z,3.83
2022-09-12T19:35:24.728Z,3.40
2022-09-12T19:39:27.730Z,3.22
2022-09-12T19:43:33.060Z,3.05
2022-09-12T19:47:36.393Z,3.90
2022-09-12T19:51:39.539Z,3.45
2022-09-12T19:55:42.844Z,3.75
2022-09-12T19:59:48.119Z,3.58
2022-09-12T20:03:52.638Z,3.85
2022-09-12T20:07:55.690Z,4.20
2022-09-12T20:11:59.705Z,4.10
2022-09-12T20:16:09.130Z,3.67
2022-09-12T20:20:12.271Z,4.10
2022-09-12T20:24:15.910Z,4.40
2022-09-12T20:28:19.091Z,4.30
2022-09-12T20:32:23.635Z,3.80
2022-09-12T20:36:28.378Z,5.10
2022-09-12T20:40:31.413Z,4.40
2022-09-12T20:44:34.545Z,4.07
2022-09-12T20:48:39.646Z,4.20
2022-09-12T20:52:42.644Z,13.90
2022-09-12T20:56:45.773Z,4.22
2022-09-12T21:00:49.156Z,3.65
2022-09-12T21:04:54.206Z,3.75
2022-09-12T21:08:59.828Z,3.80
2022-09-12T21:13:03.319Z,3.78
2022-09-12T21:17:06.462Z,3.47
2022-09-12T21:21:13.266Z,4.03
2022-09-12T21:25:16.459Z,3.35
2022-09-12T21:29:19.591Z,3.22
2022-09-12T21:33:23.130Z,2.80
2022-09-12T21:37:27.656Z,2.30
2022-09-12T21:41:30.698Z,2.13
2022-09-12T21:45:34.258Z,2.22
2022-09-12T21:49:37.272Z,2.15
2022-09-12T21:53:42.453Z,1.80
2022-09-12T21:57:45.605Z,2.08
2022-09-12T22:01:48.695Z,1.77
2022-09-12T22:05:52.576Z,2.25
2022-09-12T22:09:57.119Z,2.33
2022-09-12T22:14:00.288Z,2.00
2022-09-12T22:18:03.270Z,2.10
2022-09-12T22:22:24.382Z,2.50
2022-09-12T22:26:29.292Z,2.50
2022-09-12T22:30:32.491Z,2.42
2022-09-12T22:34:35.482Z,2.20
2022-09-12T22:38:38.712Z,2.10
2022-09-12T22:42:43.057Z,2.30
2022-09-12T22:46:47.359Z,2.00
2022-09-12T22:50:50.657Z,1.90
2022-09-12T22:54:53.854Z,2.33
2022-09-12T22:58:58.572Z,1.70
2022-09-12T23:03:01.970Z,1.95
2022-09-12T23:07:05.247Z,1.67
2022-09-12T23:11:10.539Z,1.58
2022-09-12T23:15:15.262Z,1.88
2022-09-12T23:19:18.309Z,1.40
2022-09-12T23:23:21.285Z,1.70
2022-09-12T23:27:27.085Z,1.55
2022-09-12T23:31:32.733Z,1.75
2022-09-12T23:35:36.705Z,2.15
2022-09-12T23:39:39.779Z,1.75
2022-09-12T23:43:45.363Z,2.10
2022-09-12T23:47:49.713Z,1.70
2022-09-12T23:51:52.738Z,1.60
2022-09-12T23:55:55.791Z,2.05
2022-09-12T23:59:58.793Z,1.80
